Time;durP1;ratioP1;P1;durP2;ratioP2;P2;SDS_P1;SDS_P2;PMS_P1;PMS_P2;Temp;Humidity;BMP_temperature;BMP_pressure;BME280_temperature;BME280_humidity;BME280_pressure;Samples;Min_cycle;Max_cycle;Signal;HPM_P1;HPM_P2
2022/10/21 00:01:06;;;;;;;;;;;12.20;99.90;;;;;;4924815;29;19933;-83
2022/10/21 00:03:32;;;;;;;;;;;12.20;99.90;;;;;;4939375;29;19927;-84
2022/10/21 00:05:57;;;;;;;;;;;12.10;99.90;;;;;;4908177;29;19992;-84
2022/10/21 00:08:23;;;;;;;;;;;12.10;99.90;;;;;;4923760;29;19926;-84
2022/10/21 00:10:50;;;;;;;;;;;12.00;99.90;;;;;;4908318;29;19930;-84
2022/10/21 00:13:15;;;;;;;;;;;12.00;99.90;;;;;;4939788;29;19926;-85
2022/10/21 00:15:41;;;;;;;;;;;12.00;99.90;;;;;;4908049;29;19933;-84
2022/10/21 00:18:07;;;;;;;;;;;11.90;99.90;;;;;;4907723;29;19977;-83
2022/10/21 00:20:32;;;;;;;;;;;11.90;99.90;;;;;;4923337;29;19927;-84
2022/10/21 00:22:58;;;;;;;;;;;11.90;99.90;;;;;;4907939;29;19977;-83
2022/10/21 00:25:23;;;;;;;;;;;11.90;99.90;;;;;;4923546;29;19931;-84
2022/10/21 00:27:49;;;;;;;;;;;11.90;99.90;;;;;;4907811;29;19974;-85
2022/10/21 00:30:14;;;;;;;;;;;11.90;99.90;;;;;;4938873;29;19926;-83
2022/10/21 00:32:40;;;;;;;;;;;11.90;99.90;;;;;;4923703;29;19974;-84
2022/10/21 00:35:06;;;;;;;;;;;11.90;99.90;;;;;;4923329;29;20390;-86
2022/10/21 00:37:32;;;;;;;;;;;11.80;99.90;;;;;;4923450;29;19926;-85
2022/10/21 00:39:57;;;;;;;;;;;11.90;99.90;;;;;;4940007;29;20068;-84
2022/10/21 00:42:28;;;;;;;;;;;11.80;99.90;;;;;;4907697;29;20374;-86
2022/10/21 00:45:10;;;;;;;;;;;11.90;99.90;;;;;;4923253;29;19937;-84
2022/10/21 00:47:41;;;;;;;;;;;11.80;99.90;;;;;;4939054;29;20370;-85
2022/10/21 00:50:20;;;;;;;;;;;11.80;99.90;;;;;;4922583;29;19937;-86
2022/10/21 00:52:46;;;;;;;;;;;11.80;99.90;;;;;;4939165;29;19977;-85
2022/10/21 00:55:11;;;;;;;;;;;11.80;99.90;;;;;;4923234;29;19931;-84
2022/10/21 00:57:37;;;;;;;;;;;11.70;99.90;;;;;;4938808;29;19933;-85
2022/10/21 01:00:04;;;;;;;;;;;11.70;99.90;;;;;;4923357;29;19933;-85
2022/10/21 01:02:30;;;;;;;;;;;11.70;99.90;;;;;;4923061;29;19926;-84
2022/10/21 01:04:57;;;;;;;;;;;11.70;99.90;;;;;;4923083;29;20381;-85
2022/10/21 01:07:23;;;;;;;;;;;11.70;99.90;;;;;;4923358;29;19930;-85
2022/10/21 01:09:48;;;;;;;;;;;11.70;99.90;;;;;;4923871;29;20387;-85
2022/10/21 01:12:22;;;;;;;;;;;11.70;99.90;;;;;;4922947;29;19989;-84
2022/10/21 01:14:52;;;;;;;;;;;11.70;99.90;;;;;;4939700;29;19926;-85
2022/10/21 01:17:20;;;;;;;;;;;11.70;99.90;;;;;;4923010;29;19982;-84
2022/10/21 01:20:05;;;;;;;;;;;11.70;99.90;;;;;;4938663;29;19927;-84
2022/10/21 01:23:03;;;;;;;;;;;11.70;99.90;;;;;;4923147;29;19933;-85
2022/10/21 01:25:31;;;;;;;;;;;11.70;99.90;;;;;;4907417;29;19927;-85
2022/10/21 01:27:57;;;;;;;;;;;11.70;99.90;;;;;;4938707;29;19944;-85
2022/10/21 01:30:36;;;;;;;;;;;11.70;99.90;;;;;;4922355;29;19999;-84
2022/10/21 01:33:06;;;;;;;;;;;11.70;99.90;;;;;;4938637;29;19926;-84
2022/10/21 01:35:36;;;;;;;;;;;11.70;99.90;;;;;;4922860;29;19930;-85
2022/10/21 01:38:05;;;;;;;;;;;11.70;99.90;;;;;;4938526;29;20013;-84
2022/10/21 01:40:44;;;;;;;;;;;11.70;99.90;;;;;;4922977;29;19969;-87
2022/10/21 01:43:15;;;;;;;;;;;11.70;99.90;;;;;;4938876;29;19969;-85
2022/10/21 01:45:43;;;;;;;;;;;11.70;99.90;;;;;;4922663;29;19926;-85
2022/10/21 01:48:35;;;;;;;;;;;11.60;99.90;;;;;;4923015;29;20331;-85
2022/10/21 01:51:01;;;;;;;;;;;11.70;99.90;;;;;;4935292;29;19934;-84
2022/10/21 01:53:28;;;;;;;;;;;11.70;99.90;;;;;;4938589;29;19966;-84
2022/10/21 01:55:54;;;;;;;;;;;11.80;99.90;;;;;;4939266;29;20318;-84
2022/10/21 01:58:22;;;;;;;;;;;11.80;99.90;;;;;;4922809;29;19926;-84
2022/10/21 02:00:49;;;;;;;;;;;11.90;99.90;;;;;;4924462;29;19927;-84
2022/10/21 02:03:21;;;;;;;;;;;11.90;99.90;;;;;;4926339;29;19933;-84
2022/10/21 02:05:46;;;;;;;;;;;11.90;99.90;;;;;;4925882;29;20021;-84
2022/10/21 02:08:12;;;;;;;;;;;11.90;99.90;;;;;;4926002;29;20012;-84
2022/10/21 02:10:40;;;;;;;;;;;12.00;99.90;;;;;;4926743;29;19926;-85
2022/10/21 02:13:08;;;;;;;;;;;11.90;99.90;;;;;;4941900;29;19927;-84
2022/10/21 02:15:34;;;;;;;;;;;12.00;99.90;;;;;;4926138;29;19933;-85
2022/10/21 02:18:07;;;;;;;;;;;12.00;99.90;;;;;;4925904;29;20025;-84
2022/10/21 02:20:38;;;;;;;;;;;12.00;99.90;;;;;;4926149;29;20437;-85
2022/10/21 02:23:04;;;;;;;;;;;12.00;99.90;;;;;;4941201;29;19930;-85
2022/10/21 02:25:33;;;;;;;;;;;12.00;99.90;;;;;;4926427;29;19934;-85
2022/10/21 02:27:59;;;;;;;;;;;12.10;99.90;;;;;;4941865;29;19927;-84
2022/10/21 02:30:25;;;;;;;;;;;12.10;99.90;;;;;;4940921;29;19930;-84
2022/10/21 02:33:05;;;;;;;;;;;12.10;99.90;;;;;;4925787;29;20375;-84
2022/10/21 02:35:37;;;;;;;;;;;12.10;99.90;;;;;;4926389;29;19981;-84
2022/10/21 02:38:08;;;;;;;;;;;12.20;99.90;;;;;;4925563;29;20025;-85
2022/10/21 02:40:41;;;;;;;;;;;12.20;99.90;;;;;;4925759;29;19930;-85
2022/10/21 02:43:27;;;;;;;;;;;12.20;99.90;;;;;;4941159;29;20421;-85
2022/10/21 02:45:57;;;;;;;;;;;12.20;99.90;;;;;;4915054;29;19933;-84
2022/10/21 02:48:23;;;;;;;;;;;12.30;99.90;;;;;;4941959;29;19926;-84
2022/10/21 02:50:49;;;;;;;;;;;12.30;99.90;;;;;;4925245;29;20298;-84
2022/10/21 02:53:14;;;;;;;;;;;12.30;99.90;;;;;;4910331;29;20279;-84
2022/10/21 02:55:40;;;;;;;;;;;12.30;99.90;;;;;;4925792;29;19927;-85
2022/10/21 02:58:05;;;;;;;;;;;12.30;99.90;;;;;;4924997;29;20429;-84
2022/10/21 03:00:31;;;;;;;;;;;12.40;99.90;;;;;;4908940;29;20311;-84
2022/10/21 03:02:56;;;;;;;;;;;12.40;99.90;;;;;;4941119;29;19926;-83
2022/10/21 03:05:22;;;;;;;;;;;12.50;99.90;;;;;;4925731;29;19973;-83
2022/10/21 03:07:49;;;;;;;;;;;12.50;99.90;;;;;;4940721;29;20263;-83
2022/10/21 03:10:14;;;;;;;;;;;12.40;99.90;;;;;;4925152;29;19930;-83
2022/10/21 03:12:40;;;;;;;;;;;12.50;99.90;;;;;;4939838;29;20421;-84
2022/10/21 03:15:06;;;;;;;;;;;12.50;99.90;;;;;;4941393;29;19933;-84
2022/10/21 03:17:31;;;;;;;;;;;12.50;99.90;;;;;;4924653;29;19977;-84
2022/10/21 03:19:57;;;;;;;;;;;12.40;99.90;;;;;;4924649;29;19926;-84
2022/10/21 03:22:22;;;;;;;;;;;12.50;99.90;;;;;;4924638;29;19996;-84
2022/10/21 03:24:48;;;;;;;;;;;12.40;99.90;;;;;;4908854;29;20069;-85
2022/10/21 03:27:13;;;;;;;;;;;12.50;99.90;;;;;;4940328;29;19930;-84
2022/10/21 03:29:39;;;;;;;;;;;12.50;99.90;;;;;;4940130;29;19927;-84
2022/10/21 03:32:05;;;;;;;;;;;12.50;99.90;;;;;;4909356;29;20021;-84
2022/10/21 03:34:30;;;;;;;;;;;12.50;99.90;;;;;;4908708;29;19927;-84
2022/10/21 03:36:56;;;;;;;;;;;12.50;99.90;;;;;;4908578;29;19927;-84
2022/10/21 03:39:21;;;;;;;;;;;12.50;99.90;;;;;;4924012;29;20355;-84
2022/10/21 03:41:47;;;;;;;;;;;12.50;99.90;;;;;;4940870;29;19927;-84
2022/10/21 03:44:12;;;;;;;;;;;12.50;99.90;;;;;;4940303;29;19933;-84
2022/10/21 03:46:38;;;;;;;;;;;12.50;99.90;;;;;;4924252;29;20355;-83
2022/10/21 03:49:03;;;;;;;;;;;12.50;99.90;;;;;;4924830;29;19985;-84
2022/10/21 03:51:29;;;;;;;;;;;12.50;99.90;;;;;;4925069;29;19954;-84
2022/10/21 03:53:54;;;;;;;;;;;12.60;99.90;;;;;;4923714;29;19985;-84
2022/10/21 03:56:20;;;;;;;;;;;12.60;99.90;;;;;;4924077;29;20007;-84
2022/10/21 03:58:46;;;;;;;;;;;12.70;99.90;;;;;;4939595;29;19977;-86
2022/10/21 04:01:12;;;;;;;;;;;12.70;99.90;;;;;;4924188;29;19935;-84
2022/10/21 04:03:38;;;;;;;;;;;12.70;99.90;;;;;;4908268;29;19926;-83
2022/10/21 04:06:04;;;;;;;;;;;12.80;99.90;;;;;;4939738;29;19950;-83
2022/10/21 04:08:29;;;;;;;;;;;12.90;99.90;;;;;;4939752;29;19927;-84
2022/10/21 04:10:58;;;;;;;;;;;12.90;99.90;;;;;;4924480;29;19927;-84
2022/10/21 04:13:24;;;;;;;;;;;12.90;99.90;;;;;;4923723;29;20027;-84
2022/10/21 04:15:50;;;;;;;;;;;13.00;99.90;;;;;;4908248;29;19982;-84
2022/10/21 04:18:15;;;;;;;;;;;13.00;99.90;;;;;;4939393;29;19947;-84
2022/10/21 04:20:41;;;;;;;;;;;13.00;99.90;;;;;;4939625;29;19933;-84
2022/10/21 04:23:07;;;;;;;;;;;13.00;99.90;;;;;;4923491;29;19926;-84
2022/10/21 04:25:32;;;;;;;;;;;13.10;99.90;;;;;;4923746;29;19945;-86
2022/10/21 04:27:58;;;;;;;;;;;13.10;99.90;;;;;;4924176;29;20331;-84
2022/10/21 04:30:24;;;;;;;;;;;13.10;99.90;;;;;;4923062;29;19926;-83
2022/10/21 04:32:49;;;;;;;;;;;13.20;99.90;;;;;;4923400;29;20390;-83
2022/10/21 04:35:16;;;;;;;;;;;13.10;99.90;;;;;;4907735;29;19933;-84
2022/10/21 04:37:42;;;;;;;;;;;13.20;99.90;;;;;;4939835;29;19978;-83
2022/10/21 04:40:08;;;;;;;;;;;13.20;99.90;;;;;;4923316;29;19927;-84
2022/10/21 04:42:33;;;;;;;;;;;13.30;99.90;;;;;;4923218;29;20021;-84
2022/10/21 04:44:59;;;;;;;;;;;13.20;99.90;;;;;;4923349;29;19934;-84
2022/10/21 04:47:24;;;;;;;;;;;13.20;99.90;;;;;;4923144;29;19937;-84
2022/10/21 04:49:50;;;;;;;;;;;13.20;99.90;;;;;;4923462;29;19926;-83
2022/10/21 04:52:15;;;;;;;;;;;13.20;99.90;;;;;;4923427;29;20034;-84
2022/10/21 04:54:41;;;;;;;;;;;13.30;99.90;;;;;;4923372;29;20278;-84
2022/10/21 04:57:06;;;;;;;;;;;13.30;99.90;;;;;;4938969;29;19926;-84
2022/10/21 04:59:32;;;;;;;;;;;13.30;99.90;;;;;;4923595;29;19927;-84
2022/10/21 05:01:57;;;;;;;;;;;13.30;99.90;;;;;;4939764;29;19990;-84
2022/10/21 05:04:23;;;;;;;;;;;13.30;99.90;;;;;;4938868;29;19934;-84
2022/10/21 05:06:48;;;;;;;;;;;13.30;99.90;;;;;;4907280;29;19937;-83
2022/10/21 05:09:14;;;;;;;;;;;13.30;99.90;;;;;;4922931;29;19969;-82
2022/10/21 05:11:40;;;;;;;;;;;13.30;99.90;;;;;;4923032;29;19928;-83
2022/10/21 05:14:05;;;;;;;;;;;13.30;99.90;;;;;;4923168;29;19927;-83
2022/10/21 05:16:31;;;;;;;;;;;13.40;99.90;;;;;;4923757;29;19958;-84
2022/10/21 05:18:56;;;;;;;;;;;13.40;99.90;;;;;;4922979;29;20296;-83
2022/10/21 05:21:22;;;;;;;;;;;13.30;99.90;;;;;;4922966;29;19935;-84
2022/10/21 05:23:47;;;;;;;;;;;13.30;99.90;;;;;;4922938;29;19977;-83
2022/10/21 05:26:13;;;;;;;;;;;13.30;99.90;;;;;;4923041;29;20302;-83
2022/10/21 05:28:38;;;;;;;;;;;13.20;99.90;;;;;;4906897;29;19927;-83
2022/10/21 05:31:04;;;;;;;;;;;13.20;99.90;;;;;;4922281;29;19930;-85
2022/10/21 05:33:29;;;;;;;;;;;13.30;99.90;;;;;;4907177;29;19926;-83
2022/10/21 05:36:00;;;;;;;;;;;13.20;99.90;;;;;;4909290;29;19926;-84
2022/10/21 05:38:27;;;;;;;;;;;13.20;99.90;;;;;;4942475;29;19935;-83
2022/10/21 05:40:52;;;;;;;;;;;13.20;99.90;;;;;;4926468;29;19997;-83
2022/10/21 05:43:18;;;;;;;;;;;13.20;99.90;;;;;;4910449;29;20041;-84
2022/10/21 05:45:44;;;;;;;;;;;13.20;99.90;;;;;;4941969;29;19930;-83
2022/10/21 05:48:09;;;;;;;;;;;13.20;99.90;;;;;;4911329;29;19926;-83
2022/10/21 05:50:35;;;;;;;;;;;13.20;99.90;;;;;;4926621;29;19930;-85
2022/10/21 05:53:00;;;;;;;;;;;13.20;99.90;;;;;;4926434;29;20287;-86
2022/10/21 05:55:26;;;;;;;;;;;13.20;99.90;;;;;;4926217;29;20017;-84
2022/10/21 05:57:51;;;;;;;;;;;13.20;99.90;;;;;;4942661;29;19974;-85
2022/10/21 06:00:17;;;;;;;;;;;13.20;99.90;;;;;;4941741;29;19927;-84
2022/10/21 06:02:43;;;;;;;;;;;13.20;99.90;;;;;;4942207;29;19938;-84
2022/10/21 06:05:08;;;;;;;;;;;13.20;99.90;;;;;;4925735;29;19937;-84
2022/10/21 06:07:34;;;;;;;;;;;13.20;99.90;;;;;;4925993;29;19981;-84
2022/10/21 06:09:59;;;;;;;;;;;13.20;99.90;;;;;;4942615;29;19926;-85
2022/10/21 06:12:25;;;;;;;;;;;13.10;99.90;;;;;;4926745;29;19926;-85
2022/10/21 06:14:50;;;;;;;;;;;13.10;99.90;;;;;;4910198;29;19927;-85
2022/10/21 06:17:16;;;;;;;;;;;13.00;99.90;;;;;;4941841;29;19977;-83
2022/10/21 06:19:41;;;;;;;;;;;13.00;99.90;;;;;;4909770;29;20025;-87
2022/10/21 06:22:07;;;;;;;;;;;12.90;99.90;;;;;;4941934;29;19927;-85
2022/10/21 06:24:32;;;;;;;;;;;13.00;99.90;;;;;;4925322;29;20401;-85
2022/10/21 06:26:58;;;;;;;;;;;12.90;99.90;;;;;;4925914;29;19927;-82
2022/10/21 06:29:24;;;;;;;;;;;12.90;99.90;;;;;;4909939;29;19936;-89
2022/10/21 06:31:49;;;;;;;;;;;12.90;99.90;;;;;;4904377;29;19981;-88
2022/10/21 06:34:15;;;;;;;;;;;12.80;99.90;;;;;;4922651;29;19927;-86
2022/10/21 06:36:40;;;;;;;;;;;12.80;99.90;;;;;;4906888;29;19942;-86
2022/10/21 06:39:06;;;;;;;;;;;12.80;99.90;;;;;;4922316;29;19926;-88
2022/10/21 06:41:32;;;;;;;;;;;12.80;99.90;;;;;;4907459;29;19974;-89
2022/10/21 06:43:58;;;;;;;;;;;12.80;99.90;;;;;;4906670;29;19934;-85
2022/10/21 06:46:24;;;;;;;;;;;12.80;99.90;;;;;;4905993;29;19953;-87
2022/10/21 06:48:49;;;;;;;;;;;12.80;99.90;;;;;;4922931;29;19996;-88
2022/10/21 06:51:17;;;;;;;;;;;12.80;99.90;;;;;;4922247;29;20013;-87
2022/10/21 06:53:43;;;;;;;;;;;12.80;99.90;;;;;;4906694;29;19927;-86
2022/10/21 06:56:10;;;;;;;;;;;12.80;99.90;;;;;;4906440;29;19942;-87
2022/10/21 06:58:37;;;;;;;;;;;12.80;99.90;;;;;;4905534;29;20403;-85
2022/10/21 07:01:06;;;;;;;;;;;12.90;99.90;;;;;;4906214;29;19966;-86
2022/10/21 07:03:32;;;;;;;;;;;12.90;99.90;;;;;;4922620;29;19927;-87
2022/10/21 07:05:58;;;;;;;;;;;12.80;99.90;;;;;;4937875;29;20339;-86
2022/10/21 07:08:24;;;;;;;;;;;12.80;99.90;;;;;;4906265;29;19930;-85
2022/10/21 07:10:50;;;;;;;;;;;12.80;99.90;;;;;;4921759;29;19933;-86
2022/10/21 07:13:15;;;;;;;;;;;12.90;99.90;;;;;;4921742;29;20017;-86
2022/10/21 07:15:41;;;;;;;;;;;12.90;99.90;;;;;;4921894;29;19927;-85
2022/10/21 07:18:06;;;;;;;;;;;12.80;99.90;;;;;;4905826;29;19927;-86
2022/10/21 07:20:32;;;;;;;;;;;12.90;99.90;;;;;;4921831;29;19950;-86
2022/10/21 07:22:58;;;;;;;;;;;12.90;99.90;;;;;;4921273;29;19927;-85
2022/10/21 07:25:24;;;;;;;;;;;12.90;99.90;;;;;;4921423;29;19931;-86
2022/10/21 07:27:49;;;;;;;;;;;13.00;99.90;;;;;;4906033;29;19931;-86
2022/10/21 07:30:15;;;;;;;;;;;13.00;99.90;;;;;;4925142;29;19981;-86
2022/10/21 07:32:40;;;;;;;;;;;13.00;99.90;;;;;;4940172;29;19949;-83
2022/10/21 07:35:07;;;;;;;;;;;13.00;99.90;;;;;;4923990;29;20393;-83
2022/10/21 07:37:32;;;;;;;;;;;13.10;99.90;;;;;;4940697;29;19926;-85
2022/10/21 07:39:58;;;;;;;;;;;13.10;99.90;;;;;;4923654;29;19926;-83
2022/10/21 07:42:24;;;;;;;;;;;13.10;99.90;;;;;;4924561;29;19927;-84
2022/10/21 07:44:52;;;;;;;;;;;13.20;99.90;;;;;;4940111;29;20367;-86
2022/10/21 07:47:17;;;;;;;;;;;13.20;99.90;;;;;;4924303;29;19934;-85
2022/10/21 07:49:43;;;;;;;;;;;13.30;99.90;;;;;;4924568;29;19926;-86
2022/10/21 07:52:08;;;;;;;;;;;13.40;99.90;;;;;;4939928;29;19977;-84
2022/10/21 07:54:34;;;;;;;;;;;13.40;99.90;;;;;;4924296;29;19985;-85
2022/10/21 07:56:59;;;;;;;;;;;13.40;99.90;;;;;;4908418;29;20013;-86
2022/10/21 07:59:25;;;;;;;;;;;13.50;99.90;;;;;;4923682;29;20278;-86
2022/10/21 08:01:51;;;;;;;;;;;13.50;99.90;;;;;;4939858;29;19944;-86
2022/10/21 08:04:18;;;;;;;;;;;13.60;99.90;;;;;;4939863;29;19974;-85
2022/10/21 08:06:45;;;;;;;;;;;13.60;99.90;;;;;;4923754;29;19977;-86
2022/10/21 08:09:11;;;;;;;;;;;13.70;99.90;;;;;;4923477;29;20433;-86
2022/10/21 08:11:37;;;;;;;;;;;13.70;99.90;;;;;;4939910;29;19927;-86
2022/10/21 08:14:05;;;;;;;;;;;13.80;99.90;;;;;;4908280;29;19927;-86
2022/10/21 08:16:31;;;;;;;;;;;13.70;99.90;;;;;;4939538;29;19927;-86
2022/10/21 08:18:58;;;;;;;;;;;13.80;99.90;;;;;;4923641;29;20358;-86
2022/10/21 08:21:24;;;;;;;;;;;13.80;99.90;;;;;;4923566;29;20416;-86
2022/10/21 08:23:49;;;;;;;;;;;13.90;99.90;;;;;;4923664;29;20028;-87
2022/10/21 08:26:15;;;;;;;;;;;13.90;99.90;;;;;;4908230;29;19927;-84
2022/10/21 08:28:41;;;;;;;;;;;13.90;99.90;;;;;;4924324;29;20359;-86
2022/10/21 08:31:10;;;;;;;;;;;14.00;99.90;;;;;;4923127;29;19927;-84
2022/10/21 08:33:36;;;;;;;;;;;14.00;99.90;;;;;;4939999;29;19926;-85
2022/10/21 08:36:05;;;;;;;;;;;14.10;99.90;;;;;;4923498;29;19973;-86
2022/10/21 08:38:31;;;;;;;;;;;14.20;99.90;;;;;;4924066;29;19931;-85
2022/10/21 08:40:58;;;;;;;;;;;14.20;99.90;;;;;;4907625;29;19941;-85
2022/10/21 08:43:26;;;;;;;;;;;14.30;99.90;;;;;;4939265;29;19927;-86
2022/10/21 08:46:08;;;;;;;;;;;14.30;99.90;;;;;;4923702;29;19926;-86
2022/10/21 08:48:48;;;;;;;;;;;14.30;99.90;;;;;;4939491;29;19933;-87
2022/10/21 08:51:34;;;;;;;;;;;14.40;99.90;;;;;;4923188;29;20020;-84
2022/10/21 08:54:02;;;;;;;;;;;14.40;99.90;;;;;;4938081;29;19927;-84
2022/10/21 08:56:29;;;;;;;;;;;14.40;99.90;;;;;;4923118;29;20369;-84
2022/10/21 08:58:55;;;;;;;;;;;14.40;99.90;;;;;;4939623;29;19930;-85
2022/10/21 09:01:24;;;;;;;;;;;14.50;99.90;;;;;;4923913;29;20410;-86
2022/10/21 09:04:06;;;;;;;;;;;14.50;99.90;;;;;;4939175;29;20366;-87
2022/10/21 09:06:32;;;;;;;;;;;14.50;99.90;;;;;;4923141;29;19927;-86
2022/10/21 09:09:20;;;;;;;;;;;14.60;99.90;;;;;;4923178;28;19973;-85
2022/10/21 09:12:05;;;;;;;;;;;14.60;99.90;;;;;;4926881;29;19927;-86
2022/10/21 09:14:42;;;;;;;;;;;14.60;99.90;;;;;;4942883;29;20024;-86
2022/10/21 09:17:21;;;;;;;;;;;14.60;99.90;;;;;;4927023;29;19933;-87
2022/10/21 09:20:05;;;;;;;;;;;14.60;99.90;;;;;;4942528;29;19926;-87
2022/10/21 09:22:43;;;;;;;;;;;14.70;99.90;;;;;;4926825;29;20018;-86
2022/10/21 09:25:12;;;;;;;;;;;14.80;99.90;;;;;;4927276;29;20025;-86
2022/10/21 09:27:38;;;;;;;;;;;14.80;99.90;;;;;;4926725;29;19942;-86
2022/10/21 09:30:05;;;;;;;;;;;14.80;99.90;;;;;;4926518;29;19926;-85
2022/10/21 09:32:32;;;;;;;;;;;14.80;99.90;;;;;;4926699;29;19926;-86
2022/10/21 09:35:16;;;;;;;;;;;14.80;99.90;;;;;;4927455;29;19969;-86
2022/10/21 09:37:48;;;;;;;;;;;14.80;99.90;;;;;;4942533;29;19927;-84
2022/10/21 09:40:16;;;;;;;;;;;14.90;99.90;;;;;;4943169;29;20295;-85
2022/10/21 09:42:42;;;;;;;;;;;14.90;99.90;;;;;;4943240;29;19927;-84
2022/10/21 09:45:18;;;;;;;;;;;14.80;99.90;;;;;;4927438;29;20374;-87
2022/10/21 09:47:44;;;;;;;;;;;14.90;99.90;;;;;;4926552;29;20374;-87
2022/10/21 09:50:15;;;;;;;;;;;14.90;99.90;;;;;;4926479;29;19934;-86
2022/10/21 09:52:43;;;;;;;;;;;14.90;99.90;;;;;;4926787;29;19926;-85
2022/10/21 09:55:12;;;;;;;;;;;14.90;99.90;;;;;;4942011;29;19954;-86
2022/10/21 09:57:47;;;;;;;;;;;14.90;99.90;;;;;;4926639;29;19933;-86
2022/10/21 10:00:12;;;;;;;;;;;14.90;99.90;;;;;;4926483;29;19933;-85
2022/10/21 10:02:39;;;;;;;;;;;14.90;99.90;;;;;;4926154;29;19926;-85
2022/10/21 10:05:24;;;;;;;;;;;14.90;99.90;;;;;;4925966;29;20030;-86
2022/10/21 10:07:49;;;;;;;;;;;14.90;99.90;;;;;;4942650;29;19930;-85
2022/10/21 10:10:31;;;;;;;;;;;14.90;99.90;;;;;;4941809;29;20385;-87
2022/10/21 10:12:58;;;;;;;;;;;14.90;99.90;;;;;;4926245;29;19927;-86
2022/10/21 10:15:31;;;;;;;;;;;14.90;99.90;;;;;;4926048;29;19927;-91
2022/10/21 10:17:56;;;;;;;;;;;14.90;99.90;;;;;;4926739;29;19926;-89
2022/10/21 10:20:22;;;;;;;;;;;15.00;99.90;;;;;;4926696;28;20428;-89
2022/10/21 10:22:59;;;;;;;;;;;15.00;99.90;;;;;;4926385;29;19952;-89
2022/10/21 10:25:28;;;;;;;;;;;15.00;99.90;;;;;;4926369;29;19927;-89
2022/10/21 10:27:55;;;;;;;;;;;15.00;99.90;;;;;;4942400;29;19931;-87
2022/10/21 10:30:22;;;;;;;;;;;15.00;99.90;;;;;;4926159;29;19958;-89
2022/10/21 10:32:51;;;;;;;;;;;15.00;99.90;;;;;;4926419;29;19927;-88
2022/10/21 10:35:24;;;;;;;;;;;15.00;99.90;;;;;;4926319;29;19930;-89
2022/10/21 10:37:50;;;;;;;;;;;15.10;99.90;;;;;;4942793;29;19930;-88
2022/10/21 10:40:19;;;;;;;;;;;15.10;99.90;;;;;;4926247;29;19941;-89
2022/10/21 10:42:45;;;;;;;;;;;15.20;99.90;;;;;;4926058;29;19937;-87
2022/10/21 10:45:11;;;;;;;;;;;15.20;99.90;;;;;;4927025;29;19926;-91
2022/10/21 10:47:41;;;;;;;;;;;15.20;99.90;;;;;;4926391;29;19926;-88
2022/10/21 10:50:33;;;;;;;;;;;15.20;99.90;;;;;;4941708;29;19926;-89
2022/10/21 10:53:20;;;;;;;;;;;15.20;99.90;;;;;;4922536;29;20294;-87
2022/10/21 10:55:47;;;;;;;;;;;15.20;99.90;;;;;;4941742;29;19926;-89
2022/10/21 10:58:13;;;;;;;;;;;15.20;99.90;;;;;;4941548;29;19927;-88
2022/10/21 11:00:41;;;;;;;;;;;15.30;99.90;;;;;;4941400;29;19926;-88
2022/10/21 11:03:11;;;;;;;;;;;15.30;99.90;;;;;;4941387;29;19927;-90
2022/10/21 11:05:41;;;;;;;;;;;15.40;99.90;;;;;;4925744;29;20335;-92
2022/10/21 11:08:13;;;;;;;;;;;15.40;99.90;;;;;;4941587;29;19934;-89
2022/10/21 11:10:38;;;;;;;;;;;15.40;99.90;;;;;;4925200;29;19993;-90
2022/10/21 11:13:08;;;;;;;;;;;15.40;99.90;;;;;;4925080;29;19969;-88
2022/10/21 11:15:49;;;;;;;;;;;15.50;99.90;;;;;;4941294;29;20016;-88
2022/10/21 11:18:21;;;;;;;;;;;15.40;99.90;;;;;;4941286;29;19932;-88
2022/10/21 11:20:54;;;;;;;;;;;15.50;99.90;;;;;;4925562;29;19990;-89
2022/10/21 11:23:20;;;;;;;;;;;15.50;99.90;;;;;;4926305;29;19942;-90
2022/10/21 11:25:48;;;;;;;;;;;15.50;99.90;;;;;;4925623;29;19930;-88
2022/10/21 11:28:29;;;;;;;;;;;15.50;99.90;;;;;;4925505;29;20402;-88
2022/10/21 11:31:09;;;;;;;;;;;15.50;99.90;;;;;;4940299;29;19934;-87
2022/10/21 11:33:38;;;;;;;;;;;15.50;99.90;;;;;;4925280;29;19930;-90
2022/10/21 11:36:16;;;;;;;;;;;15.60;99.90;;;;;;4940830;29;19993;-89
2022/10/21 11:38:48;;;;;;;;;;;15.60;99.90;;;;;;4924995;29;19926;-87
2022/10/21 11:41:21;;;;;;;;;;;15.70;99.90;;;;;;4940975;29;19933;-90
2022/10/21 11:43:47;;;;;;;;;;;15.70;99.90;;;;;;4941725;29;20000;-88
2022/10/21 11:46:12;;;;;;;;;;;15.60;99.90;;;;;;4924916;29;20366;-89
2022/10/21 11:48:53;;;;;;;;;;;15.70;99.90;;;;;;4924816;29;19993;-87
2022/10/21 11:51:22;;;;;;;;;;;15.70;99.90;;;;;;4925366;29;19927;-90
2022/10/21 11:54:06;;;;;;;;;;;15.60;99.90;;;;;;4940841;29;19981;-87
2022/10/21 11:56:42;;;;;;;;;;;15.70;99.90;;;;;;4924492;29;19926;-87
2022/10/21 11:59:13;;;;;;;;;;;15.80;99.90;;;;;;4924687;29;20025;-86
2022/10/21 12:01:45;;;;;;;;;;;15.80;99.90;;;;;;4940273;29;19989;-88
2022/10/21 12:04:32;;;;;;;;;;;15.80;99.90;;;;;;4924057;29;19933;-87
2022/10/21 12:06:57;;;;;;;;;;;15.80;99.90;;;;;;4940126;29;19927;-86
2022/10/21 12:09:31;;;;;;;;;;;15.80;99.90;;;;;;4940111;29;20017;-86
2022/10/21 12:12:01;;;;;;;;;;;15.80;99.90;;;;;;4940104;29;19927;-86
2022/10/21 12:14:35;;;;;;;;;;;15.80;99.90;;;;;;4940940;29;19933;-89
2022/10/21 12:17:04;;;;;;;;;;;15.90;99.90;;;;;;4924518;29;19930;-88
2022/10/21 12:19:30;;;;;;;;;;;16.00;99.90;;;;;;4923640;29;19926;-91
2022/10/21 12:21:56;;;;;;;;;;;15.90;99.90;;;;;;4924528;29;19926;-89
2022/10/21 12:24:28;;;;;;;;;;;15.90;99.90;;;;;;4924046;29;20001;-89
2022/10/21 12:27:12;;;;;;;;;;;15.90;99.90;;;;;;4923946;29;19976;-88
2022/10/21 12:29:56;;;;;;;;;;;15.90;99.90;;;;;;4923893;29;19927;-88
2022/10/21 12:32:37;;;;;;;;;;;16.00;99.90;;;;;;4936807;29;19934;-88
2022/10/21 12:35:04;;;;;;;;;;;16.00;99.90;;;;;;4905487;29;19927;-89
2022/10/21 12:38:04;;;;;;;;;;;16.20;99.90;;;;;;4889376;29;20030;-87
2022/10/21 12:40:31;;;;;;;;;;;16.30;99.90;;;;;;4921331;29;20022;-87
2022/10/21 12:43:01;;;;;;;;;;;16.60;99.90;;;;;;4904812;29;20414;-87
2022/10/21 12:45:28;;;;;;;;;;;16.90;99.90;;;;;;4904946;29;20315;-87
2022/10/21 12:47:54;;;;;;;;;;;17.40;99.90;;;;;;4920667;29;19978;-85
2022/10/21 12:50:23;;;;;;;;;;;18.00;99.90;;;;;;4905465;29;19927;-86
2022/10/21 12:53:21;;;;;;;;;;;18.50;99.90;;;;;;4920114;29;19926;-85
2022/10/21 12:55:48;;;;;;;;;;;19.20;99.90;;;;;;4889015;29;19982;-87
2022/10/21 12:58:20;;;;;;;;;;;19.80;99.90;;;;;;4920154;29;20021;-86
2022/10/21 13:00:45;;;;;;;;;;;19.90;99.90;;;;;;4904631;29;19985;-86
2022/10/21 13:03:17;;;;;;;;;;;20.20;99.90;;;;;;4905036;29;20274;-87
2022/10/21 13:05:46;;;;;;;;;;;20.40;99.90;;;;;;4921237;29;19933;-86
2022/10/21 13:08:26;;;;;;;;;;;20.40;99.90;;;;;;4904845;29;19933;-87
2022/10/21 13:11:04;;;;;;;;;;;20.40;99.90;;;;;;4905144;29;19931;-87
2022/10/21 13:13:31;;;;;;;;;;;20.20;99.90;;;;;;4905013;29;19996;-88
2022/10/21 13:15:58;;;;;;;;;;;20.50;99.90;;;;;;4904574;29;19926;-87
2022/10/21 13:18:42;;;;;;;;;;;20.70;99.90;;;;;;4904449;29;19934;-87
2022/10/21 13:21:21;;;;;;;;;;;21.40;99.90;;;;;;4920183;29;19927;-88
2022/10/21 13:23:51;;;;;;;;;;;21.30;99.90;;;;;;4920118;29;19927;-87
2022/10/21 13:26:18;;;;;;;;;;;21.60;99.90;;;;;;4919873;29;20405;-86
2022/10/21 13:28:55;;;;;;;;;;;22.10;99.90;;;;;;4952081;29;20370;-91
2022/10/21 13:31:23;;;;;;;;;;;21.40;99.90;;;;;;4938819;29;19933;-93
2022/10/21 13:33:53;;;;;;;;;;;20.90;99.90;;;;;;4924682;29;19931;-92
2022/10/21 13:36:39;;;;;;;;;;;20.40;99.90;;;;;;4924266;29;19926;-93
2022/10/21 13:39:15;;;;;;;;;;;19.80;99.90;;;;;;4923146;29;19985;-93
2022/10/21 13:41:41;;;;;;;;;;;19.50;99.90;;;;;;4923667;29;19950;-93
2022/10/21 13:44:22;;;;;;;;;;;19.30;99.90;;;;;;4908428;29;19973;-92
2022/10/21 13:46:47;;;;;;;;;;;19.00;99.90;;;;;;4923730;29;19927;-92
2022/10/21 13:49:27;;;;;;;;;;;18.80;99.90;;;;;;4923636;29;19978;-91
2022/10/21 13:51:52;;;;;;;;;;;18.80;99.90;;;;;;4923661;29;20374;-93
2022/10/21 13:54:21;;;;;;;;;;;18.70;99.90;;;;;;4923878;29;19933;-93
2022/10/21 13:56:49;;;;;;;;;;;18.50;99.90;;;;;;4925542;29;19930;-94
2022/10/21 13:59:41;;;;;;;;;;;18.40;99.90;;;;;;4927257;29;19931;-94
2022/10/21 14:02:21;;;;;;;;;;;18.50;99.90;;;;;;4924049;29;19926;-91
2022/10/21 14:04:51;;;;;;;;;;;18.40;99.90;;;;;;4927595;29;19933;-91
2022/10/21 14:07:18;;;;;;;;;;;18.50;99.90;;;;;;4943632;29;19926;-81
2022/10/21 14:09:43;;;;;;;;;;;18.50;99.90;;;;;;4926761;29;19969;-81
2022/10/21 14:12:29;;;;;;;;;;;18.50;99.90;;;;;;4942361;29;19980;-86
2022/10/21 14:14:56;;;;;;;;;;;18.50;99.90;;;;;;4938821;29;19931;-93
2022/10/21 14:17:23;;;;;;;;;;;18.40;99.90;;;;;;4933386;29;20300;-91
2022/10/21 14:19:50;;;;;;;;;;;18.30;99.90;;;;;;4928726;29;19931;-88
2022/10/21 14:22:18;;;;;;;;;;;18.30;99.90;;;;;;4925686;29;19927;-90
2022/10/21 14:24:48;;;;;;;;;;;18.20;99.90;;;;;;4941627;29;19927;-87
2022/10/21 14:27:24;;;;;;;;;;;18.20;99.90;;;;;;4925463;29;19949;-87